Time;durP1;ratioP1;P1;durP2;ratioP2;P2;SDS_P1;SDS_P2;PMS_P1;PMS_P2;Temp;Humidity;BMP_temperature;BMP_pressure;BME280_temperature;BME280_humidity;BME280_pressure;Samples;Min_cycle;Max_cycle;Signal;HPM_P1;HPM_P2
2022/10/07 00:01:54;;;;;;;1.30;1.20;;;7.60;97.30;;;;;;5076357;28;20186;-82
2022/10/07 00:04:19;;;;;;;2.13;1.40;;;7.60;97.30;;;;;;5058116;28;20441;-83
2022/10/07 00:06:45;;;;;;;2.10;1.97;;;7.60;97.30;;;;;;5059189;28;20417;-81
2022/10/07 00:09:11;;;;;;;2.63;2.43;;;7.50;97.30;;;;;;5058231;28;20564;-83
2022/10/07 00:11:36;;;;;;;1.50;1.40;;;7.50;97.30;;;;;;5058637;28;20380;-81
2022/10/07 00:14:06;;;;;;;2.23;2.03;;;7.50;97.30;;;;;;5057842;28;20199;-83
2022/10/07 00:16:37;;;;;;;5.13;1.90;;;7.40;97.30;;;;;;5058388;28;20190;-83
2022/10/07 00:19:06;;;;;;;1.83;1.53;;;7.50;97.30;;;;;;5052096;28;20509;-82
2022/10/07 00:21:33;;;;;;;6.43;2.30;;;7.40;97.30;;;;;;5051646;28;20444;-78
2022/10/07 00:23:59;;;;;;;1.80;1.70;;;7.40;97.30;;;;;;5057712;28;20553;-82
2022/10/07 00:26:28;;;;;;;1.80;1.70;;;7.40;97.30;;;;;;5057998;28;20429;-80
2022/10/07 00:28:54;;;;;;;1.80;1.70;;;7.40;97.30;;;;;;5045400;28;20453;-78
2022/10/07 00:31:25;;;;;;;2.57;2.30;;;7.40;97.30;;;;;;5057829;28;20432;-82
2022/10/07 00:33:51;;;;;;;2.80;2.60;;;7.40;97.30;;;;;;5057548;28;20457;-83
2022/10/07 00:36:22;;;;;;;1.50;1.40;;;7.50;97.30;;;;;;5057876;28;20432;-82
2022/10/07 00:38:56;;;;;;;3.10;2.90;;;7.40;97.30;;;;;;5057729;28;20425;-78
2022/10/07 00:41:28;;;;;;;1.63;1.53;;;7.40;97.30;;;;;;5057864;28;20448;-78
2022/10/07 00:43:54;;;;;;;2.80;1.70;;;7.40;97.30;;;;;;5057452;28;20442;-77
2022/10/07 00:46:38;;;;;;;1.97;1.87;;;7.40;97.30;;;;;;5057815;28;20659;-78
2022/10/07 00:49:10;;;;;;;4.33;3.00;;;7.40;97.30;;;;;;5057498;28;20456;-79
2022/10/07 00:51:36;;;;;;;1.60;1.50;;;7.40;97.30;;;;;;5061109;28;21070;-78
2022/10/07 00:54:09;;;;;;;1.50;1.40;;;7.40;97.30;;;;;;5057415;28;20499;-82
2022/10/07 00:56:35;;;;;;;2.97;2.13;;;7.40;97.30;;;;;;5075646;28;20495;-83
2022/10/07 00:59:01;;;;;;;1.70;1.60;;;7.40;97.30;;;;;;5057288;28;20460;-78
2022/10/07 01:01:26;;;;;;;1.90;1.80;;;7.40;97.30;;;;;;5057313;28;20248;-83
2022/10/07 01:03:53;;;;;;;2.67;2.23;;;7.40;97.30;;;;;;5057435;28;20545;-82
2022/10/07 01:06:18;;;;;;;2.43;1.90;;;7.40;97.30;;;;;;5075244;28;20637;-84
2022/10/07 01:08:47;;;;;;;8.00;1.40;;;7.40;97.30;;;;;;5057195;28;20421;-77
2022/10/07 01:11:38;;;;;;;2.40;1.80;;;7.40;97.30;;;;;;5047886;28;20180;-78
2022/10/07 01:14:22;;;;;;;1.50;1.40;;;7.40;97.30;;;;;;5056716;28;20452;-77
2022/10/07 01:16:56;;;;;;;2.47;2.27;;;7.40;97.30;;;;;;5056404;28;20425;-83
2022/10/07 01:19:58;;;;;;;1.60;1.50;;;7.40;97.30;;;;;;5056981;28;20425;-77
2022/10/07 01:22:49;;;;;;;7.53;2.13;;;7.40;97.30;;;;;;5046289;28;20571;-80
2022/10/07 01:25:31;;;;;;;3.03;2.83;;;7.30;97.30;;;;;;5056713;28;20418;-83
2022/10/07 01:28:06;;;;;;;2.07;1.93;;;7.30;97.30;;;;;;5074634;28;20418;-78
2022/10/07 01:30:36;;;;;;;1.93;1.50;;;7.30;97.30;;;;;;5045056;28;20467;-83
2022/10/07 01:33:13;;;;;;;1.37;1.27;;;7.30;97.30;;;;;;5074249;28;20478;-83
2022/10/07 01:35:41;;;;;;;1.37;1.30;;;7.30;97.30;;;;;;5056496;28;20447;-80
2022/10/07 01:38:10;;;;;;;2.57;2.13;;;7.30;97.30;;;;;;5056653;28;21034;-77
2022/10/07 01:43:04;;;;;;;2.30;1.80;;;7.20;97.30;;;;;;5082440;28;20473;-83
2022/10/07 01:45:34;;;;;;;4.00;2.33;;;7.20;97.30;;;;;;5093874;28;20448;-83
2022/10/07 01:48:00;;;;;;;1.53;1.50;;;7.20;97.30;;;;;;5091438;28;20507;-83
2022/10/07 01:50:28;;;;;;;2.00;1.67;;;7.10;97.30;;;;;;5087560;28;20476;-81
2022/10/07 01:53:01;;;;;;;4.33;2.00;;;7.10;97.30;;;;;;5072527;28;20453;-79
2022/10/07 01:55:54;;;;;;;1.80;1.70;;;7.10;97.30;;;;;;5072258;28;20946;-82
2022/10/07 01:58:45;;;;;;;2.90;1.70;;;7.10;97.30;;;;;;5061201;28;20799;-80
2022/10/07 02:01:21;;;;;;;2.63;1.37;;;7.10;97.30;;;;;;5071208;28;20970;-78
2022/10/07 02:04:10;;;;;;;2.27;2.07;;;7.10;97.30;;;;;;5070073;28;20992;-85
2022/10/07 02:06:43;;;;;;;2.60;1.80;;;7.10;97.30;;;;;;5048758;28;20457;-80
2022/10/07 02:09:19;;;;;;;2.00;1.50;;;7.10;97.30;;;;;;5072075;28;20857;-83
2022/10/07 02:11:50;;;;;;;1.37;1.30;;;7.00;97.30;;;;;;5072346;28;20444;-84
2022/10/07 02:14:24;;;;;;;2.30;1.83;;;7.00;97.30;;;;;;5075483;28;20500;-83
2022/10/07 02:16:55;;;;;;;2.40;1.70;;;7.00;97.30;;;;;;5081394;28;21170;-83
2022/10/07 02:19:27;;;;;;;2.93;2.70;;;7.00;97.30;;;;;;5072231;28;21008;-79
2022/10/07 02:21:56;;;;;;;1.43;1.43;;;7.00;97.30;;;;;;5100929;22;20520;-77
2022/10/07 02:24:24;;;;;;;1.87;1.20;;;7.00;97.30;;;;;;5112564;28;20408;-78
2022/10/07 02:26:53;;;;;;;2.53;2.37;;;7.00;97.30;;;;;;5094851;28;20451;-83
2022/10/07 02:29:20;;;;;;;6.33;2.40;;;7.00;97.30;;;;;;5082961;28;20423;-78
2022/10/07 02:31:47;;;;;;;3.33;1.60;;;7.00;97.30;;;;;;5076346;28;20806;-83
2022/10/07 02:34:16;;;;;;;2.50;1.93;;;7.00;97.30;;;;;;5074989;28;20581;-82
2022/10/07 02:36:53;;;;;;;5.20;2.70;;;7.00;97.30;;;;;;5075457;28;20473;-79
2022/10/07 02:39:20;;;;;;;1.80;1.70;;;7.00;97.30;;;;;;5075075;28;20994;-79
2022/10/07 02:42:24;;;;;;;1.83;1.73;;;6.90;97.30;;;;;;5061727;28;20471;-81
2022/10/07 02:44:56;;;;;;;5.90;2.93;;;6.90;97.30;;;;;;5074521;28;20937;-77
2022/10/07 02:47:34;;;;;;;2.90;2.10;;;7.00;97.30;;;;;;5075047;28;20481;-80
2022/10/07 02:50:03;;;;;;;1.63;1.53;;;7.00;97.30;;;;;;5073474;28;20444;-83
2022/10/07 02:52:31;;;;;;;2.20;1.50;;;7.00;97.30;;;;;;5075021;28;20428;-82
2022/10/07 02:55:06;;;;;;;2.73;2.53;;;7.00;97.30;;;;;;5070956;28;20464;-78
2022/10/07 02:57:44;;;;;;;1.70;1.60;;;7.00;97.30;;;;;;5066669;28;20428;-78
2022/10/07 03:00:12;;;;;;;5.50;2.53;;;7.00;97.30;;;;;;5074678;28;20807;-84
2022/10/07 03:02:51;;;;;;;1.80;1.70;;;7.00;97.30;;;;;;5075050;28;21115;-84
2022/10/07 03:05:18;;;;;;;2.70;1.50;;;7.00;97.30;;;;;;5063162;28;20444;-83
2022/10/07 03:07:48;;;;;;;1.93;1.87;;;7.00;97.30;;;;;;5074776;28;20435;-78
2022/10/07 03:10:15;;;;;;;2.73;2.53;;;7.00;97.30;;;;;;5075069;28;20439;-83
2022/10/07 03:12:41;;;;;;;2.60;2.40;;;7.10;97.30;;;;;;5074907;28;20519;-79
2022/10/07 03:15:09;;;;;;;1.43;1.40;;;7.10;97.30;;;;;;5065397;28;20506;-78
2022/10/07 03:17:35;;;;;;;1.40;1.30;;;7.10;97.30;;;;;;5071130;28;20425;-82
2022/10/07 03:20:01;;;;;;;1.80;1.70;;;7.10;97.30;;;;;;5074526;28;20472;-82
2022/10/07 03:22:28;;;;;;;9.20;1.93;;;7.10;97.30;;;;;;5074781;28;20214;-83
2022/10/07 03:24:53;;;;;;;2.37;2.17;;;7.10;97.30;;;;;;5074877;28;20265;-78
2022/10/07 03:27:19;;;;;;;7.63;2.27;;;7.10;97.30;;;;;;5074710;28;20585;-82
2022/10/07 03:29:45;;;;;;;1.30;1.20;;;7.10;97.30;;;;;;5074768;28;20183;-80
2022/10/07 03:32:10;;;;;;;5.80;3.17;;;7.10;97.30;;;;;;5074554;28;20194;-81
2022/10/07 03:34:36;;;;;;;2.80;1.60;;;7.10;97.30;;;;;;5076316;28;20192;-79
2022/10/07 03:37:03;;;;;;;6.73;3.53;;;7.10;97.30;;;;;;5077640;28;20190;-83
2022/10/07 03:39:28;;;;;;;1.40;1.40;;;7.10;97.30;;;;;;5078627;28;20192;-84
2022/10/07 03:41:55;;;;;;;3.00;2.80;;;7.00;97.30;;;;;;5078212;28;20464;-83
2022/10/07 03:44:21;;;;;;;2.20;2.10;;;7.00;97.30;;;;;;5078336;28;20532;-78
2022/10/07 03:46:50;;;;;;;2.60;2.40;;;7.00;97.30;;;;;;5078346;28;20416;-78
2022/10/07 03:49:16;;;;;;;1.47;1.30;;;6.90;97.30;;;;;;5096729;28;20193;-83
2022/10/07 03:51:42;;;;;;;2.00;1.57;;;6.90;97.30;;;;;;5095833;28;20436;-83
2022/10/07 03:54:08;;;;;;;1.60;1.50;;;6.90;97.30;;;;;;5077540;28;20408;-79
2022/10/07 03:56:33;;;;;;;2.63;1.90;;;6.90;97.30;;;;;;5074047;28;20424;-83
2022/10/07 03:59:00;;;;;;;1.87;1.77;;;6.80;97.30;;;;;;5078006;28;20275;-83
2022/10/07 04:01:25;;;;;;;2.00;1.90;;;6.80;97.30;;;;;;5072246;28;20202;-84
2022/10/07 04:03:52;;;;;;;1.60;1.50;;;6.80;97.30;;;;;;5076794;28;20412;-84
2022/10/07 04:06:17;;;;;;;3.67;1.93;;;6.70;97.30;;;;;;5094477;28;20207;-82
2022/10/07 04:08:43;;;;;;;2.53;2.30;;;6.70;97.30;;;;;;5075478;28;20414;-80
2022/10/07 04:11:10;;;;;;;1.83;1.73;;;6.60;97.30;;;;;;5075318;28;20718;-85
2022/10/07 04:13:35;;;;;;;1.77;1.50;;;6.60;97.30;;;;;;5077983;28;20523;-83
2022/10/07 04:16:06;;;;;;;1.60;1.50;;;6.50;97.30;;;;;;5075723;28;20455;-86
2022/10/07 04:18:32;;;;;;;3.63;2.13;;;6.50;97.30;;;;;;5070230;28;20298;-84
2022/10/07 04:20:59;;;;;;;1.50;1.40;;;6.50;97.30;;;;;;5071419;28;20913;-84
2022/10/07 04:23:24;;;;;;;2.90;1.90;;;6.50;97.30;;;;;;5068726;28;20585;-84
2022/10/07 04:25:50;;;;;;;2.60;1.63;;;6.40;97.30;;;;;;5069534;28;20503;-86
2022/10/07 04:28:19;;;;;;;2.63;2.10;;;6.40;97.30;;;;;;5067354;28;20174;-82
2022/10/07 04:30:49;;;;;;;1.77;1.70;;;6.40;97.30;;;;;;5081345;28;20198;-84
2022/10/07 04:33:17;;;;;;;2.10;1.70;;;6.30;97.30;;;;;;5065652;28;21276;-84
2022/10/07 04:35:43;;;;;;;2.07;1.70;;;6.30;97.30;;;;;;5075810;28;20424;-81
2022/10/07 04:38:10;;;;;;;2.27;2.07;;;6.30;97.30;;;;;;5071030;28;20423;-84
2022/10/07 04:40:44;;;;;;;2.67;2.50;;;6.30;97.30;;;;;;5071546;28;20813;-82
2022/10/07 04:43:21;;;;;;;6.10;2.50;;;6.30;97.30;;;;;;5076666;28;20416;-83
2022/10/07 04:45:50;;;;;;;1.93;1.57;;;6.20;97.30;;;;;;5071198;28;20425;-84
2022/10/07 04:48:17;;;;;;;2.83;2.00;;;6.20;97.30;;;;;;5071552;28;20424;-85
2022/10/07 04:50:43;;;;;;;2.63;1.83;;;6.20;97.30;;;;;;5071293;28;20440;-82
2022/10/07 04:53:13;;;;;;;1.90;1.80;;;6.10;97.30;;;;;;5089597;28;20794;-82
2022/10/07 04:55:45;;;;;;;3.33;1.90;;;6.10;97.30;;;;;;5072429;28;20478;-80
2022/10/07 04:58:11;;;;;;;3.90;3.73;;;6.10;97.30;;;;;;5076565;28;20868;-79
2022/10/07 05:00:47;;;;;;;1.87;1.80;;;6.10;97.30;;;;;;5095007;28;20519;-85
2022/10/07 05:03:14;;;;;;;1.83;1.73;;;6.10;97.30;;;;;;5076764;28;20211;-82
2022/10/07 05:05:41;;;;;;;3.23;2.13;;;6.10;97.30;;;;;;5070836;28;20485;-80
2022/10/07 05:08:07;;;;;;;2.40;2.03;;;6.10;97.30;;;;;;5074057;28;20810;-84
2022/10/07 05:10:40;;;;;;;1.70;1.30;;;6.10;97.30;;;;;;5075668;28;20515;-81
2022/10/07 05:13:11;;;;;;;1.73;1.63;;;6.10;97.30;;;;;;5074564;28;20532;-81
2022/10/07 05:15:37;;;;;;;2.40;2.20;;;6.20;97.30;;;;;;5063713;28;20424;-83
2022/10/07 05:18:04;;;;;;;1.47;1.40;;;6.20;97.30;;;;;;5075037;28;20513;-85
2022/10/07 05:20:30;;;;;;;4.47;2.70;;;6.30;97.30;;;;;;5071084;28;20460;-79
2022/10/07 05:22:56;;;;;;;4.93;2.00;;;6.30;97.30;;;;;;5076227;28;20461;-84
2022/10/07 05:25:21;;;;;;;1.93;1.90;;;6.30;97.30;;;;;;5071014;28;20206;-80
2022/10/07 05:27:52;;;;;;;2.17;2.00;;;6.30;97.30;;;;;;5073505;28;20182;-85
2022/10/07 05:30:18;;;;;;;4.23;2.37;;;6.30;97.30;;;;;;5074313;28;20198;-81
2022/10/07 05:32:44;;;;;;;2.93;2.73;;;6.30;97.30;;;;;;5075874;28;20444;-84
2022/10/07 05:35:10;;;;;;;4.17;2.57;;;6.30;97.30;;;;;;5075647;28;20473;-81
2022/10/07 05:37:35;;;;;;;1.20;1.20;;;6.40;97.30;;;;;;5074066;28;20182;-84
2022/10/07 05:40:01;;;;;;;2.60;2.40;;;6.40;97.30;;;;;;5073845;28;20368;-85
2022/10/07 05:42:26;;;;;;;3.07;1.77;;;6.40;97.30;;;;;;5081575;28;20202;-84
2022/10/07 05:44:52;;;;;;;3.63;3.53;;;6.40;97.30;;;;;;5068788;28;20178;-84
2022/10/07 05:47:18;;;;;;;1.30;1.20;;;6.40;97.30;;;;;;5066110;28;20388;-82
2022/10/07 05:49:44;;;;;;;2.80;2.23;;;6.40;97.30;;;;;;5055621;28;20209;-83
2022/10/07 05:52:09;;;;;;;3.23;2.50;;;6.40;97.30;;;;;;5084131;28;20429;-81
2022/10/07 05:54:35;;;;;;;4.83;2.13;;;6.50;97.30;;;;;;5085635;28;20244;-81
2022/10/07 05:57:01;;;;;;;3.03;2.50;;;6.50;97.30;;;;;;5079146;28;20189;-83
2022/10/07 05:59:27;;;;;;;4.40;2.43;;;6.50;97.30;;;;;;5058987;28;20175;-79
2022/10/07 06:01:56;;;;;;;1.80;1.70;;;6.50;97.30;;;;;;5058241;22;20493;-81
2022/10/07 06:04:21;;;;;;;2.50;1.57;;;6.50;97.30;;;;;;5021142;28;20651;-80
2022/10/07 06:06:47;;;;;;;3.17;2.37;;;6.60;97.30;;;;;;5026221;28;20507;-80
2022/10/07 06:14:44;;;;;;;1.63;1.47;;;6.60;97.30;;;;;;5032490;28;20426;-81
2022/10/07 06:17:09;;;;;;;1.33;1.23;;;6.60;97.30;;;;;;5014702;28;20940;-80
2022/10/07 06:19:36;;;;;;;5.47;3.50;;;6.60;97.30;;;;;;5007251;28;20269;-84
2022/10/07 06:22:03;;;;;;;3.23;2.30;;;6.70;97.30;;;;;;5005972;28;20212;-84
2022/10/07 06:24:29;;;;;;;2.13;1.80;;;6.70;97.30;;;;;;5006794;28;20499;-79
2022/10/07 06:26:54;;;;;;;3.37;2.23;;;6.70;97.30;;;;;;4995470;28;20555;-84
2022/10/07 06:29:20;;;;;;;5.43;2.07;;;6.80;97.30;;;;;;5010798;28;20815;-81
2022/10/07 06:31:46;;;;;;;2.77;2.57;;;6.80;97.30;;;;;;5005796;28;20436;-79
2022/10/07 06:34:12;;;;;;;2.07;1.67;;;6.90;97.30;;;;;;5010057;28;20416;-85
2022/10/07 06:36:38;;;;;;;2.40;1.57;;;6.90;97.30;;;;;;5008192;28;20805;-85
2022/10/07 06:39:04;;;;;;;2.13;1.97;;;7.00;97.30;;;;;;5014100;28;20176;-83
2022/10/07 06:41:30;;;;;;;5.27;2.70;;;7.10;97.30;;;;;;5000118;28;20521;-86
2022/10/07 06:43:59;;;;;;;1.73;1.27;;;7.10;97.30;;;;;;4998201;28;20276;-81
2022/10/07 06:46:25;;;;;;;1.97;1.93;;;7.20;97.30;;;;;;4995667;28;20243;-85
2022/10/07 06:48:51;;;;;;;7.30;3.00;;;7.30;97.30;;;;;;5029892;28;20463;-82
2022/10/07 06:51:21;;;;;;;2.47;1.70;;;7.40;97.30;;;;;;5068007;22;20491;-84
2022/10/07 06:54:22;;;;;;;2.63;2.47;;;7.50;97.30;;;;;;5073847;28;20173;-85
2022/10/07 06:56:50;;;;;;;3.90;1.90;;;7.70;97.30;;;;;;5091779;28;20963;-86
2022/10/07 06:59:53;;;;;;;3.77;2.57;;;7.80;97.30;;;;;;5073567;28;20489;-85
2022/10/07 07:03:12;;;;;;;2.20;1.57;;;7.90;97.30;;;;;;5060900;28;20467;-85
2022/10/07 07:05:21;;;;;;;2.40;2.20;;;8.00;97.30;;;;;;5059394;28;20768;-80
2022/10/07 07:10:52;;;;;;;1.43;1.33;;;8.20;97.30;;;;;;4968298;28;20440;-84
2022/10/07 07:14:12;;;;;;;;;;;;;;;;;;;;;
2022/10/07 07:17:01;;;;;;;1.77;1.67;;;8.40;97.30;;;;;;5068839;28;20413;-84
2022/10/07 07:19:50;;;;;;;2.10;1.70;;;8.50;97.30;;;;;;5065924;28;20460;-85
2022/10/07 07:22:22;;;;;;;3.13;2.20;;;8.60;97.30;;;;;;5062393;28;20469;-79
2022/10/07 07:25:11;;;;;;;3.23;2.40;;;8.70;97.30;;;;;;5058459;28;20432;-81
2022/10/07 07:28:01;;;;;;;1.57;1.50;;;8.80;97.30;;;;;;5068651;28;20425;-79
2022/10/07 07:31:25;;;;;;;;;;;;;;;;;;;;;
2022/10/07 07:33:52;;;;;;;3.57;2.83;;;9.00;97.30;;;;;;5069705;28;20422;-84
2022/10/07 07:40:01;;;;;;;1.70;1.60;;;9.30;97.30;;;;;;5006371;28;20832;-84
2022/10/07 07:43:01;;;;;;;4.30;2.10;;;9.40;97.30;;;;;;5072608;28;20455;-79
2022/10/07 07:46:31;;;;;;;1.50;1.40;;;9.50;97.30;;;;;;5047544;28;20440;-79
2022/10/07 07:49:32;;;;;;;4.47;2.63;;;9.70;97.30;;;;;;5041004;28;20405;-84
2022/10/07 07:52:24;;;;;;;4.30;3.00;;;9.90;97.30;;;;;;5055471;28;20503;-82
2022/10/07 07:55:11;;;;;;;4.17;2.50;;;10.00;97.30;;;;;;5037823;28;20417;-84
2022/10/07 07:57:51;;;;;;;3.00;1.33;;;10.10;97.30;;;;;;5060790;28;20426;-81
2022/10/07 08:00:50;;;;;;;;;;;;;;;;;;;;;
2022/10/07 08:03:21;;;;;;;2.73;1.20;;;10.40;97.30;;;;;;5025734;28;20467;-84
2022/10/07 08:06:40;;;;;;;2.60;2.33;;;10.50;97.30;;;;;;4998998;28;20416;-82
2022/10/07 08:09:20;;;;;;;2.43;1.50;;;10.70;97.30;;;;;;4967910;28;20484;-81
2022/10/07 08:11:51;;;;;;;8.83;2.60;;;10.90;97.30;;;;;;5069375;22;20547;-79
2022/10/07 08:14:21;;;;;;;1.80;1.43;;;11.00;97.30;;;;;;5062754;28;20414;-79
2022/10/07 08:17:20;;;;;;;2.60;1.73;;;11.10;97.30;;;;;;5052837;28;20414;-80
2022/10/07 08:20:21;;;;;;;6.30;2.60;;;11.30;97.30;;;;;;5050266;28;20501;-80
2022/10/07 08:22:52;;;;;;;4.40;2.33;;;11.40;97.30;;;;;;5060795;28;21035;-79
2022/10/07 08:25:21;;;;;;;3.63;1.77;;;11.60;97.30;;;;;;5072913;28;20421;-79
2022/10/07 08:27:49;;;;;;;2.70;1.80;;;11.70;97.30;;;;;;5072812;28;20457;-81
2022/10/07 08:30:30;;;;;;;4.20;1.97;;;11.90;97.30;;;;;;5071943;28;20429;-82
2022/10/07 08:33:41;;;;;;;;;;;;;;;;;;;;;
2022/10/07 08:36:52;;;;;;;;;;;;;;;;;;;;;
2022/10/07 08:39:23;;;;;;;3.23;2.23;;;12.30;97.30;;;;;;5041531;28;20422;-79
2022/10/07 08:42:42;;;;;;;1.70;1.60;;;12.50;97.30;;;;;;5065887;22;20477;-82
2022/10/07 08:49:11;;;;;;;2.03;1.63;;;12.80;97.30;;;;;;5000028;28;20419;-84
2022/10/07 08:53:10;;;;;;;;;;;;;;;;;;;;;
2022/10/07 08:59:41;;;;;;;2.10;1.47;;;13.20;97.30;;;;;;4941023;28;20457;-81
2022/10/07 09:06:01;;;;;;;3.97;1.70;;;13.50;97.30;;;;;;5033676;28;20413;-79
2022/10/07 09:09:12;;;;;;;2.40;2.20;;;13.70;97.30;;;;;;5027411;28;20464;-84
2022/10/07 09:15:40;;;;;;;2.63;1.50;;;14.00;97.00;;;;;;4963898;28;20489;-84
2022/10/07 09:19:40;;;;;;;;;;;;;;;;;;;;;
2022/10/07 09:21:57;;;;;;;1.30;1.20;;;14.20;96.30;;;;;;4948850;29;20841;-84
2022/10/07 09:24:42;;;;;;;1.20;1.03;;;14.40;95.90;;;;;;4963421;28;20425;-84
2022/10/07 09:30:49;;;;;;;1.50;1.40;;;14.70;94.60;;;;;;4990983;28;20736;-83
2022/10/07 09:36:23;;;;;;;0.90;0.83;;;15.00;93.90;;;;;;5046776;28;20460;-84
2022/10/07 09:38:52;;;;;;;3.47;1.30;;;15.10;93.80;;;;;;5072951;28;20762;-84
2022/10/07 09:44:32;;;;;;;1.10;1.10;;;15.40;92.80;;;;;;5046036;28;20927;-80
2022/10/07 09:47:52;;;;;;;1.27;1.23;;;15.50;92.80;;;;;;5075505;28;20413;-85
2022/10/07 09:51:25;;;;;;;2.20;1.70;;;15.60;93.10;;;;;;5000154;28;20522;-79
2022/10/07 09:57:12;;;;;;;1.40;1.30;;;15.90;91.90;;;;;;4960665;28;20422;-82
2022/10/07 10:01:01;;;;;;;4.50;1.20;;;16.00;91.40;;;;;;4997453;28;20942;-85
2022/10/07 10:03:11;;;;;;;4.63;1.30;;;16.10;91.10;;;;;;5078444;28;20482;-80
2022/10/07 10:06:01;;;;;;;0.97;0.93;;;16.20;90.50;;;;;;5062844;28;20509;-84
2022/10/07 10:08:41;;;;;;;1.63;1.10;;;16.30;89.90;;;;;;5042549;28;20935;-80
2022/10/07 10:11:39;;;;;;;1.17;1.07;;;16.40;90.10;;;;;;5078333;22;20484;-79
2022/10/07 10:15:11;;;;;;;1.27;1.17;;;16.60;90.90;;;;;;5107700;28;20428;-84
2022/10/07 10:18:31;;;;;;;1.40;1.30;;;16.70;90.20;;;;;;4988141;28;20428;-84
2022/10/07 10:21:31;;;;;;;0.90;0.90;;;17.00;89.20;;;;;;4960772;28;20504;-84
2022/10/07 10:28:11;;;;;;;1.20;1.10;;;17.30;87.90;;;;;;5062378;28;20979;-84
2022/10/07 10:42:21;;;;;;;1.30;1.20;;;18.10;86.50;;;;;;5082697;22;20937;-80
2022/10/07 10:45:51;;;;;;;1.33;1.07;;;18.20;86.10;;;;;;5072744;28;20435;-85
2022/10/07 10:49:01;;;;;;;1.20;1.10;;;18.30;85.40;;;;;;5009443;28;20407;-81
2022/10/07 10:55:20;;;;;;;1.00;0.90;;;18.70;84.00;;;;;;4992282;28;20426;-81
2022/10/07 10:58:31;;;;;;;4.50;1.17;;;18.80;82.80;;;;;;4993599;28;21040;-81
2022/10/07 11:01:49;;;;;;;;;;;;;;;;;;;;;
2022/10/07 11:05:11;;;;;;;1.10;1.10;;;19.00;83.10;;;;;;5064640;28;20905;-83
2022/10/07 11:11:51;;;;;;;1.30;0.90;;;19.10;81.40;;;;;;5059673;22;20519;-79
2022/10/07 11:15:12;;;;;;;1.00;0.90;;;19.20;82.10;;;;;;5075698;28;20413;-84
2022/10/07 11:18:02;;;;;;;1.60;1.50;;;19.40;81.10;;;;;;5086571;28;21010;-80
2022/10/07 11:21:21;;;;;;;0.80;0.70;;;19.50;82.10;;;;;;5087719;22;20531;-80
2022/10/07 11:24:41;;;;;;;2.23;1.77;;;19.70;81.00;;;;;;5054418;28;20429;-82
2022/10/07 11:27:51;;;;;;;3.33;1.00;;;19.80;81.00;;;;;;4974108;28;20481;-79
2022/10/07 11:30:39;;;;;;;1.50;1.20;;;19.80;80.80;;;;;;4941463;28;20969;-83
2022/10/07 11:37:02;;;;;;;1.33;1.23;;;19.90;81.00;;;;;;4959559;28;20868;-82
2022/10/07 11:39:30;;;;;;;1.27;1.20;;;20.00;81.70;;;;;;4934777;29;20796;-84
2022/10/07 11:42:32;;;;;;;2.67;1.90;;;20.20;80.70;;;;;;4950647;28;20465;-84
2022/10/07 11:45:51;;;;;;;1.13;1.03;;;20.30;80.10;;;;;;5017909;28;20441;-81
2022/10/07 11:48:42;;;;;;;1.20;0.90;;;20.40;79.50;;;;;;4950735;28;21061;-85
2022/10/07 11:51:33;;;;;;;2.17;0.97;;;20.40;79.20;;;;;;5070320;22;20503;-79
2022/10/07 11:57:02;;;;;;;1.10;1.00;;;20.70;77.90;;;;;;5011097;28;20870;-80
2022/10/07 11:59:41;;;;;;;1.10;1.00;;;20.70;78.10;;;;;;5013815;28;20490;-80
2022/10/07 12:02:52;;;;;;;1.67;1.57;;;20.80;78.20;;;;;;4995781;28;20450;-81
2022/10/07 12:05:45;;;;;;;;;;;;;;;;;;;;;
2022/10/07 12:08:52;;;;;;;1.37;1.27;;;20.70;78.10;;;;;;4998568;28;21045;-84
2022/10/07 12:12:22;;;;;;;;;;;;;;;;;;;;;
2022/10/07 12:15:42;;;;;;;1.30;1.23;;;20.90;79.50;;;;;;5075780;28;20421;-80
2022/10/07 12:21:22;;;;;;;2.30;1.30;;;21.30;77.70;;;;;;5096106;22;20488;-81
2022/10/07 12:24:08;;;;;;;1.70;1.60;;;21.50;77.10;;;;;;5086118;28;20419;-83
2022/10/07 12:26:34;;;;;;;0.97;0.90;;;21.60;76.70;;;;;;5092469;28;20404;-80
2022/10/07 12:29:00;;;;;;;1.03;0.93;;;21.60;75.70;;;;;;5090288;28;20775;-82
2022/10/07 12:31:31;;;;;;;1.40;1.10;;;21.60;75.50;;;;;;5092551;28;20696;-83
2022/10/07 12:34:09;;;;;;;1.10;1.00;;;21.50;75.60;;;;;;5093193;28;20170;-84
2022/10/07 12:36:38;;;;;;;1.33;1.23;;;21.60;76.50;;;;;;5086959;28;20428;-83
2022/10/07 12:39:08;;;;;;;3.87;1.40;;;21.70;76.80;;;;;;5086965;28;20452;-83
2022/10/07 12:41:38;;;;;;;3.33;1.47;;;21.80;76.30;;;;;;5088633;28;20457;-82
2022/10/07 12:44:21;;;;;;;2.23;1.53;;;21.80;76.80;;;;;;5090873;28;20795;-82
2022/10/07 12:47:19;;;;;;;1.47;1.27;;;21.80;75.80;;;;;;5090010;28;20434;-82
2022/10/07 12:49:57;;;;;;;0.80;0.80;;;21.80;76.80;;;;;;5088009;28;20416;-85
2022/10/07 12:52:22;;;;;;;1.73;1.67;;;21.70;76.20;;;;;;5090447;28;20469;-83
2022/10/07 12:54:48;;;;;;;0.90;0.90;;;21.70;76.90;;;;;;5090668;28;20416;-84
2022/10/07 12:57:21;;;;;;;0.90;0.80;;;21.80;76.90;;;;;;5089503;28;20179;-85
2022/10/07 13:00:06;;;;;;;1.57;1.57;;;22.00;76.40;;;;;;5091457;28;20179;-83
2022/10/07 13:02:41;;;;;;;1.50;1.40;;;22.10;76.50;;;;;;5088501;28;20547;-81
2022/10/07 13:05:51;;;;;;;4.40;1.20;;;22.10;76.60;;;;;;5089343;28;20434;-84
2022/10/07 13:08:45;;;;;;;4.50;1.27;;;22.30;76.10;;;;;;5091837;28;20492;-83
2022/10/07 13:11:22;;;;;;;1.17;1.07;;;22.40;77.00;;;;;;5088047;28;20424;-85
2022/10/07 13:14:08;;;;;;;3.00;1.47;;;22.40;76.40;;;;;;5092092;28;20489;-81
2022/10/07 13:16:44;;;;;;;1.20;1.10;;;22.50;76.20;;;;;;5088823;28;21032;-84
2022/10/07 13:19:22;;;;;;;1.00;0.93;;;22.50;76.10;;;;;;5090181;28;20441;-84
2022/10/07 13:22:23;;;;;;;1.30;1.20;;;22.60;76.00;;;;;;5085592;28;20534;-84
2022/10/07 13:24:56;;;;;;;1.57;1.47;;;22.60;76.30;;;;;;5077858;28;20420;-84
2022/10/07 13:27:28;;;;;;;1.10;1.03;;;22.60;76.00;;;;;;5090124;28;20913;-83
2022/10/07 13:29:55;;;;;;;1.93;1.10;;;22.80;77.00;;;;;;5085401;28;20455;-86
2022/10/07 13:32:23;;;;;;;15.43;1.33;;;22.90;76.50;;;;;;5085712;28;20682;-80
2022/10/07 13:34:51;;;;;;;2.20;1.20;;;23.10;76.70;;;;;;5089400;28;20413;-84
2022/10/07 13:37:34;;;;;;;1.00;0.90;;;23.20;75.80;;;;;;5090566;28;20841;-85
2022/10/07 13:40:25;;;;;;;1.83;1.17;;;23.30;75.80;;;;;;5082072;28;20445;-85
2022/10/07 13:42:57;;;;;;;6.20;1.00;;;23.30;75.40;;;;;;5082684;28;20453;-84
2022/10/07 13:45:24;;;;;;;1.20;1.10;;;23.20;75.30;;;;;;5086545;28;20423;-85
2022/10/07 13:47:50;;;;;;;1.07;0.97;;;23.20;74.80;;;;;;5089125;28;20416;-84
2022/10/07 13:50:20;;;;;;;5.80;1.83;;;23.20;74.80;;;;;;5088810;28;20428;-85
2022/10/07 13:52:48;;;;;;;1.67;1.40;;;23.30;75.00;;;;;;5088342;28;20423;-84
2022/10/07 13:55:32;;;;;;;1.57;1.30;;;23.30;74.70;;;;;;5084355;28;20404;-82
2022/10/07 13:58:00;;;;;;;0.80;0.80;;;23.30;74.60;;;;;;5086877;28;20836;-85
2022/10/07 14:00:32;;;;;;;1.43;1.33;;;23.30;74.80;;;;;;5092343;28;20949;-84
2022/10/07 14:03:01;;;;;;;1.10;1.00;;;23.30;75.40;;;;;;5092256;28;20981;-85
2022/10/07 14:05:46;;;;;;;8.40;1.87;;;23.50;75.40;;;;;;5093556;28;20419;-84
2022/10/07 14:08:16;;;;;;;1.10;0.90;;;23.60;75.00;;;;;;5092859;28;20836;-84
2022/10/07 14:11:06;;;;;;;1.00;0.90;;;23.80;75.60;;;;;;5089173;28;20958;-85
2022/10/07 14:13:34;;;;;;;2.80;1.63;;;23.90;75.00;;;;;;5089935;28;20416;-82
2022/10/07 14:16:00;;;;;;;7.13;1.20;;;23.90;74.50;;;;;;5088135;28;20531;-85
2022/10/07 14:18:28;;;;;;;1.63;1.53;;;24.00;74.10;;;;;;5087636;28;20517;-85
2022/10/07 14:21:08;;;;;;;0.87;0.83;;;24.00;74.00;;;;;;5089836;28;20226;-82
2022/10/07 14:23:36;;;;;;;1.17;1.07;;;24.00;73.30;;;;;;5087872;28;20559;-83
2022/10/07 14:26:04;;;;;;;2.37;1.27;;;23.90;73.30;;;;;;5086731;28;20401;-83
2022/10/07 14:28:32;;;;;;;0.97;0.83;;;23.90;73.90;;;;;;5088493;28;20452;-82
2022/10/07 14:37:04;;;;;;;2.43;1.40;;;24.20;74.50;;;;;;5087490;28;20510;-81
2022/10/07 14:39:42;;;;;;;4.00;1.53;;;24.00;73.30;;;;;;5088830;28;20416;-84
2022/10/07 14:42:18;;;;;;;2.13;1.27;;;24.00;74.20;;;;;;5089552;28;20448;-83
2022/10/07 14:44:44;;;;;;;4.90;1.20;;;23.90;73.90;;;;;;5084218;28;20496;-81
2022/10/07 14:47:11;;;;;;;1.10;1.00;;;24.00;73.90;;;;;;5085582;28;20440;-84
2022/10/07 14:49:37;;;;;;;1.57;1.33;;;23.90;74.00;;;;;;5089854;28;20174;-83
2022/10/07 14:52:05;;;;;;;1.40;1.30;;;23.90;74.10;;;;;;5091044;28;20412;-80
2022/10/07 14:54:35;;;;;;;2.30;1.13;;;23.90;74.00;;;;;;5089482;28;20175;-82
2022/10/07 14:57:01;;;;;;;2.50;1.40;;;23.90;74.10;;;;;;5088163;28;20400;-82
2022/10/07 14:59:26;;;;;;;1.00;1.00;;;23.90;75.00;;;;;;5087843;28;20424;-84
2022/10/07 15:01:52;;;;;;;1.20;1.17;;;23.90;74.80;;;;;;5085634;28;20288;-83
2022/10/07 15:04:20;;;;;;;1.17;1.10;;;24.00;75.10;;;;;;5086035;28;20231;-83
2022/10/07 15:06:45;;;;;;;2.53;1.30;;;24.10;74.50;;;;;;5089975;28;20637;-84
2022/10/07 15:09:12;;;;;;;5.77;0.80;;;24.00;73.60;;;;;;5085902;28;20431;-84
2022/10/07 15:11:39;;;;;;;2.20;1.50;;;24.00;74.40;;;;;;5078490;28;20646;-80
2022/10/07 15:14:04;;;;;;;4.30;1.77;;;24.10;73.90;;;;;;5086013;28;20438;-83
2022/10/07 15:16:30;;;;;;;1.07;1.07;;;24.10;74.10;;;;;;5085821;28;20803;-82
2022/10/07 15:18:56;;;;;;;1.63;1.20;;;24.10;74.20;;;;;;5079401;28;20228;-85